sensor_id;sensor_type;location;lat;lon;timestamp;temperature;humidity
53264;DHT22;39153;52.680;6.172;2023-02-28T00:02:14;3.70;99.90
53264;DHT22;39153;52.680;6.172;2023-02-28T00:04:43;3.50;99.90
53264;DHT22;39153;52.680;6.172;2023-02-28T00:07:09;3.50;99.90
53264;DHT22;39153;52.680;6.172;2023-02-28T00:09:34;3.50;99.90
53264;DHT22;39153;52.680;6.172;2023-02-28T00:12:00;3.50;99.90
53264;DHT22;39153;52.680;6.172;2023-02-28T00:14:30;3.50;99.90
53264;DHT22;39153;52.680;6.172;2023-02-28T00:16:55;3.50;99.90
53264;DHT22;39153;52.680;6.172;2023-02-28T00:19:21;3.50;99.90
53264;DHT22;39153;52.680;6.172;2023-02-28T00:21:47;3.50;99.90
53264;DHT22;39153;52.680;6.172;2023-02-28T00:24:12;3.70;99.90
53264;DHT22;39153;52.680;6.172;2023-02-28T00:26:38;3.50;99.90
53264;DHT22;39153;52.680;6.172;2023-02-28T00:29:04;3.50;99.90
53264;DHT22;39153;52.680;6.172;2023-02-28T00:31:29;3.50;99.90
53264;DHT22;39153;52.680;6.172;2023-02-28T00:33:55;3.50;99.90
53264;DHT22;39153;52.680;6.172;2023-02-28T00:36:21;3.50;99.90
53264;DHT22;39153;52.680;6.172;2023-02-28T00:38:46;3.50;99.90
53264;DHT22;39153;52.680;6.172;2023-02-28T00:41:12;3.50;99.90
53264;DHT22;39153;52.680;6.172;2023-02-28T00:43:39;3.60;99.90
53264;DHT22;39153;52.680;6.172;2023-02-28T00:46:05;3.60;99.90
53264;DHT22;39153;52.680;6.172;2023-02-28T00:48:31;3.60;99.90
53264;DHT22;39153;52.680;6.172;2023-02-28T00:50:57;3.60;99.90
53264;DHT22;39153;52.680;6.172;2023-02-28T00:53:25;3.60;99.90
53264;DHT22;39153;52.680;6.172;2023-02-28T00:55:50;3.90;99.90
53264;DHT22;39153;52.680;6.172;2023-02-28T00:58:16;3.60;99.90
53264;DHT22;39153;52.680;6.172;2023-02-28T01:00:42;3.60;99.90
53264;DHT22;39153;52.680;6.172;2023-02-28T01:03:07;3.60;99.90
53264;DHT22;39153;52.680;6.172;2023-02-28T01:05:33;3.60;99.90
53264;DHT22;39153;52.680;6.172;2023-02-28T01:07:59;3.60;99.90
53264;DHT22;39153;52.680;6.172;2023-02-28T01:10:25;3.60;99.90
53264;DHT22;39153;52.680;6.172;2023-02-28T01:12:51;3.60;99.90
53264;DHT22;39153;52.680;6.172;2023-02-28T01:15:16;3.60;99.90
53264;DHT22;39153;52.680;6.172;2023-02-28T01:17:42;3.60;99.90
53264;DHT22;39153;52.680;6.172;2023-02-28T01:20:08;3.70;99.90
53264;DHT22;39153;52.680;6.172;2023-02-28T01:22:35;3.60;99.90
53264;DHT22;39153;52.680;6.172;2023-02-28T01:25:00;3.70;99.90
53264;DHT22;39153;52.680;6.172;2023-02-28T01:27:26;3.70;99.90
53264;DHT22;39153;52.680;6.172;2023-02-28T01:29:52;3.60;99.90
53264;DHT22;39153;52.680;6.172;2023-02-28T01:32:18;3.70;99.90
53264;DHT22;39153;52.680;6.172;2023-02-28T01:34:43;3.70;99.90
53264;DHT22;39153;52.680;6.172;2023-02-28T01:37:09;3.70;99.90
53264;DHT22;39153;52.680;6.172;2023-02-28T01:39:35;3.70;99.90
53264;DHT22;39153;52.680;6.172;2023-02-28T01:42:00;3.70;99.90
53264;DHT22;39153;52.680;6.172;2023-02-28T01:47:23;3.70;99.90
53264;DHT22;39153;52.680;6.172;2023-02-28T01:49:51;3.70;99.90
53264;DHT22;39153;52.680;6.172;2023-02-28T01:52:18;3.90;99.90
53264;DHT22;39153;52.680;6.172;2023-02-28T01:54:53;3.60;99.90
53264;DHT22;39153;52.680;6.172;2023-02-28T01:57:24;3.60;99.90
53264;DHT22;39153;52.680;6.172;2023-02-28T02:00:03;3.70;99.90
53264;DHT22;39153;52.680;6.172;2023-02-28T02:02:31;3.60;99.90
53264;DHT22;39153;52.680;6.172;2023-02-28T02:05:00;3.60;99.90
53264;DHT22;39153;52.680;6.172;2023-02-28T02:07:30;3.60;99.90
53264;DHT22;39153;52.680;6.172;2023-02-28T02:10:13;4.50;99.90
53264;DHT22;39153;52.680;6.172;2023-02-28T02:15:26;3.60;99.90
53264;DHT22;39153;52.680;6.172;2023-02-28T02:17:57;3.60;99.90
53264;DHT22;39153;52.680;6.172;2023-02-28T02:23:40;3.60;99.90
53264;DHT22;39153;52.680;6.172;2023-02-28T02:40:46;3.60;99.90
53264;DHT22;39153;52.680;6.172;2023-02-28T02:43:22;3.80;99.90
53264;DHT22;39153;52.680;6.172;2023-02-28T02:46:02;3.50;99.90
53264;DHT22;39153;52.680;6.172;2023-02-28T02:48:33;3.60;99.90
53264;DHT22;39153;52.680;6.172;2023-02-28T02:51:01;3.50;99.90
53264;DHT22;39153;52.680;6.172;2023-02-28T02:53:47;3.50;99.90
53264;DHT22;39153;52.680;6.172;2023-02-28T02:56:16;3.50;99.90
53264;DHT22;39153;52.680;6.172;2023-02-28T02:58:44;3.40;99.90
53264;DHT22;39153;52.680;6.172;2023-02-28T03:01:16;3.50;99.90
53264;DHT22;39153;52.680;6.172;2023-02-28T03:03:43;3.40;99.90
53264;DHT22;39153;52.680;6.172;2023-02-28T03:06:09;3.40;99.90
53264;DHT22;39153;52.680;6.172;2023-02-28T03:08:37;3.30;99.90
53264;DHT22;39153;52.680;6.172;2023-02-28T03:11:06;3.30;99.90
53264;DHT22;39153;52.680;6.172;2023-02-28T03:13:42;3.30;99.90
53264;DHT22;39153;52.680;6.172;2023-02-28T03:16:31;3.20;99.90
53264;DHT22;39153;52.680;6.172;2023-02-28T03:24:50;3.20;99.90
53264;DHT22;39153;52.680;6.172;2023-02-28T03:33:08;3.10;99.90
53264;DHT22;39153;52.680;6.172;2023-02-28T03:35:52;3.00;99.90
53264;DHT22;39153;52.680;6.172;2023-02-28T03:38:31;3.10;99.90
53264;DHT22;39153;52.680;6.172;2023-02-28T03:41:17;2.90;99.90
53264;DHT22;39153;52.680;6.172;2023-02-28T03:43:59;3.00;99.90
53264;DHT22;39153;52.680;6.172;2023-02-28T03:46:31;2.90;99.90
53264;DHT22;39153;52.680;6.172;2023-02-28T03:49:06;2.90;99.90
53264;DHT22;39153;52.680;6.172;2023-02-28T03:51:34;3.40;99.90
53264;DHT22;39153;52.680;6.172;2023-02-28T03:54:15;2.80;99.90
53264;DHT22;39153;52.680;6.172;2023-02-28T03:56:56;2.90;99.90
53264;DHT22;39153;52.680;6.172;2023-02-28T03:59:30;2.80;99.90
53264;DHT22;39153;52.680;6.172;2023-02-28T04:01:58;2.80;99.90
53264;DHT22;39153;52.680;6.172;2023-02-28T04:04:24;2.70;99.90
53264;DHT22;39153;52.680;6.172;2023-02-28T04:06:52;2.70;99.90
53264;DHT22;39153;52.680;6.172;2023-02-28T04:09:18;2.80;99.90
53264;DHT22;39153;52.680;6.172;2023-02-28T04:11:51;2.80;99.90
53264;DHT22;39153;52.680;6.172;2023-02-28T04:14:17;2.90;99.90
53264;DHT22;39153;52.680;6.172;2023-02-28T04:16:44;2.60;99.90
53264;DHT22;39153;52.680;6.172;2023-02-28T04:19:11;2.70;99.90
53264;DHT22;39153;52.680;6.172;2023-02-28T04:21:40;2.70;99.90
53264;DHT22;39153;52.680;6.172;2023-02-28T04:24:08;2.70;99.90
53264;DHT22;39153;52.680;6.172;2023-02-28T04:26:40;2.70;99.90
53264;DHT22;39153;52.680;6.172;2023-02-28T04:29:06;2.70;99.90
53264;DHT22;39153;52.680;6.172;2023-02-28T04:31:33;2.60;99.90
53264;DHT22;39153;52.680;6.172;2023-02-28T04:33:59;2.70;99.90
53264;DHT22;39153;52.680;6.172;2023-02-28T04:36:26;2.70;99.90
53264;DHT22;39153;52.680;6.172;2023-02-28T04:38:52;2.70;99.90
53264;DHT22;39153;52.680;6.172;2023-02-28T04:41:19;2.70;99.90
53264;DHT22;39153;52.680;6.172;2023-02-28T04:43:44;2.60;99.90
53264;DHT22;39153;52.680;6.172;2023-02-28T04:46:10;2.70;99.90
53264;DHT22;39153;52.680;6.172;2023-02-28T04:48:38;2.50;99.90
53264;DHT22;39153;52.680;6.172;2023-02-28T04:51:06;1.30;99.90
53264;DHT22;39153;52.680;6.172;2023-02-28T04:53:33;2.40;99.90
53264;DHT22;39153;52.680;6.172;2023-02-28T04:55:59;2.50;99.90
53264;DHT22;39153;52.680;6.172;2023-02-28T04:58:25;2.40;99.90
53264;DHT22;39153;52.680;6.172;2023-02-28T05:00:54;2.50;99.90
53264;DHT22;39153;52.680;6.172;2023-02-28T05:03:26;2.50;99.90
53264;DHT22;39153;52.680;6.172;2023-02-28T05:05:52;2.30;99.90
53264;DHT22;39153;52.680;6.172;2023-02-28T05:08:17;2.40;99.90
53264;DHT22;39153;52.680;6.172;2023-02-28T05:10:43;1.00;99.90
53264;DHT22;39153;52.680;6.172;2023-02-28T05:13:11;2.30;99.90
53264;DHT22;39153;52.680;6.172;2023-02-28T05:15:37;2.30;99.90
53264;DHT22;39153;52.680;6.172;2023-02-28T05:18:03;2.30;99.90
53264;DHT22;39153;52.680;6.172;2023-02-28T05:20:28;2.50;99.90
53264;DHT22;39153;52.680;6.172;2023-02-28T05:22:54;2.60;99.90
53264;DHT22;39153;52.680;6.172;2023-02-28T05:25:21;2.40;99.90
53264;DHT22;39153;52.680;6.172;2023-02-28T05:27:49;2.20;99.90
53264;DHT22;39153;52.680;6.172;2023-02-28T05:30:16;2.20;99.90
53264;DHT22;39153;52.680;6.172;2023-02-28T05:32:42;2.20;99.90
53264;DHT22;39153;52.680;6.172;2023-02-28T05:35:11;2.40;99.90
53264;DHT22;39153;52.680;6.172;2023-02-28T05:37:38;2.40;99.90
53264;DHT22;39153;52.680;6.172;2023-02-28T05:40:05;2.30;99.90
53264;DHT22;39153;52.680;6.172;2023-02-28T05:42:32;2.20;99.90
53264;DHT22;39153;52.680;6.172;2023-02-28T05:44:58;2.80;99.90
53264;DHT22;39153;52.680;6.172;2023-02-28T05:47:24;2.20;99.90
53264;DHT22;39153;52.680;6.172;2023-02-28T05:49:50;2.20;99.90
53264;DHT22;39153;52.680;6.172;2023-02-28T05:52:16;2.20;99.90
53264;DHT22;39153;52.680;6.172;2023-02-28T05:54:41;2.20;99.90
53264;DHT22;39153;52.680;6.172;2023-02-28T05:57:07;1.30;99.90
53264;DHT22;39153;52.680;6.172;2023-02-28T05:59:33;2.10;99.90
53264;DHT22;39153;52.680;6.172;2023-02-28T06:01:59;2.20;99.90
53264;DHT22;39153;52.680;6.172;2023-02-28T06:04:24;2.10;99.90
53264;DHT22;39153;52.680;6.172;2023-02-28T06:06:50;2.00;99.90
53264;DHT22;39153;52.680;6.172;2023-02-28T06:09:17;1.90;99.90
53264;DHT22;39153;52.680;6.172;2023-02-28T06:11:43;1.70;99.90
53264;DHT22;39153;52.680;6.172;2023-02-28T06:14:15;2.00;99.90
53264;DHT22;39153;52.680;6.172;2023-02-28T06:16:41;2.00;99.90
53264;DHT22;39153;52.680;6.172;2023-02-28T06:19:08;2.20;99.90
53264;DHT22;39153;52.680;6.172;2023-02-28T06:21:33;1.80;99.90
53264;DHT22;39153;52.680;6.172;2023-02-28T06:23:59;2.00;99.90
53264;DHT22;39153;52.680;6.172;2023-02-28T06:26:26;1.80;99.90
53264;DHT22;39153;52.680;6.172;2023-02-28T06:28:51;1.80;99.90
53264;DHT22;39153;52.680;6.172;2023-02-28T06:31:17;1.90;99.90
53264;DHT22;39153;52.680;6.172;2023-02-28T06:33:44;1.80;99.90
53264;DHT22;39153;52.680;6.172;2023-02-28T06:36:12;1.80;99.90
53264;DHT22;39153;52.680;6.172;2023-02-28T06:38:39;1.80;99.90
53264;DHT22;39153;52.680;6.172;2023-02-28T06:41:05;1.80;99.90
53264;DHT22;39153;52.680;6.172;2023-02-28T06:43:34;1.60;99.90
53264;DHT22;39153;52.680;6.172;2023-02-28T06:46:03;1.70;99.90
53264;DHT22;39153;52.680;6.172;2023-02-28T06:48:29;1.60;99.90
53264;DHT22;39153;52.680;6.172;2023-02-28T06:51:09;1.60;99.90
53264;DHT22;39153;52.680;6.172;2023-02-28T06:53:36;1.50;99.90
53264;DHT22;39153;52.680;6.172;2023-02-28T06:56:06;1.60;99.90
53264;DHT22;39153;52.680;6.172;2023-02-28T06:58:33;1.60;99.90
53264;DHT22;39153;52.680;6.172;2023-02-28T07:00:59;1.60;99.90
53264;DHT22;39153;52.680;6.172;2023-02-28T07:03:24;1.60;99.90
53264;DHT22;39153;52.680;6.172;2023-02-28T07:05:50;1.60;99.90
53264;DHT22;39153;52.680;6.172;2023-02-28T07:08:16;2.10;99.90
53264;DHT22;39153;52.680;6.172;2023-02-28T07:10:42;1.60;99.90
53264;DHT22;39153;52.680;6.172;2023-02-28T07:13:09;1.80;99.90
53264;DHT22;39153;52.680;6.172;2023-02-28T07:15:36;1.70;99.90
53264;DHT22;39153;52.680;6.172;2023-02-28T07:18:02;1.80;99.90
53264;DHT22;39153;52.680;6.172;2023-02-28T07:20:29;1.80;99.90
53264;DHT22;39153;52.680;6.172;2023-02-28T07:22:54;1.70;99.90
53264;DHT22;39153;52.680;6.172;2023-02-28T07:25:27;1.80;99.90
53264;DHT22;39153;52.680;6.172;2023-02-28T07:27:54;1.90;99.90
53264;DHT22;39153;52.680;6.172;2023-02-28T07:30:20;1.80;99.90
53264;DHT22;39153;52.680;6.172;2023-02-28T07:32:46;1.90;99.90
53264;DHT22;39153;52.680;6.172;2023-02-28T07:35:12;1.90;99.90
53264;DHT22;39153;52.680;6.172;2023-02-28T07:37:38;2.10;99.90
53264;DHT22;39153;52.680;6.172;2023-02-28T07:40:05;1.90;99.90
53264;DHT22;39153;52.680;6.172;2023-02-28T07:42:34;1.90;99.90
53264;DHT22;39153;52.680;6.172;2023-02-28T07:45:00;2.00;99.90
53264;DHT22;39153;52.680;6.172;2023-02-28T07:47:26;1.90;99.90
53264;DHT22;39153;52.680;6.172;2023-02-28T07:49:51;1.90;99.90
53264;DHT22;39153;52.680;6.172;2023-02-28T07:52:18;1.90;99.90
53264;DHT22;39153;52.680;6.172;2023-02-28T07:54:43;2.00;99.90
53264;DHT22;39153;52.680;6.172;2023-02-28T07:57:09;2.00;99.90
53264;DHT22;39153;52.680;6.172;2023-02-28T07:59:34;2.00;99.90
53264;DHT22;39153;52.680;6.172;2023-02-28T08:02:00;1.90;99.90
53264;DHT22;39153;52.680;6.172;2023-02-28T08:04:26;3.70;99.90
53264;DHT22;39153;52.680;6.172;2023-02-28T08:06:52;2.10;99.90
53264;DHT22;39153;52.680;6.172;2023-02-28T08:09:19;2.00;99.90
53264;DHT22;39153;52.680;6.172;2023-02-28T08:11:44;2.20;99.90
53264;DHT22;39153;52.680;6.172;2023-02-28T08:14:10;2.30;99.90
53264;DHT22;39153;52.680;6.172;2023-02-28T08:16:36;2.10;99.90
53264;DHT22;39153;52.680;6.172;2023-02-28T08:19:02;2.10;99.90
53264;DHT22;39153;52.680;6.172;2023-02-28T08:21:28;2.40;99.90
53264;DHT22;39153;52.680;6.172;2023-02-28T08:23:53;2.40;99.90
53264;DHT22;39153;52.680;6.172;2023-02-28T08:26:20;2.30;99.90
53264;DHT22;39153;52.680;6.172;2023-02-28T08:28:46;2.60;99.90
53264;DHT22;39153;52.680;6.172;2023-02-28T08:31:13;2.60;99.90
53264;DHT22;39153;52.680;6.172;2023-02-28T08:33:40;2.60;99.90
53264;DHT22;39153;52.680;6.172;2023-02-28T08:36:07;2.60;99.90
53264;DHT22;39153;52.680;6.172;2023-02-28T08:38:33;2.70;99.90
53264;DHT22;39153;52.680;6.172;2023-02-28T08:41:02;2.70;99.90
53264;DHT22;39153;52.680;6.172;2023-02-28T08:43:28;2.80;99.90
53264;DHT22;39153;52.680;6.172;2023-02-28T08:45:55;2.90;99.90
53264;DHT22;39153;52.680;6.172;2023-02-28T08:48:23;2.90;99.90
53264;DHT22;39153;52.680;6.172;2023-02-28T08:50:59;3.20;99.90
53264;DHT22;39153;52.680;6.172;2023-02-28T08:53:26;3.30;99.90
53264;DHT22;39153;52.680;6.172;2023-02-28T08:56:00;3.50;99.90
53264;DHT22;39153;52.680;6.172;2023-02-28T08:58:26;3.70;99.90
53264;DHT22;39153;52.680;6.172;2023-02-28T09:00:52;3.90;99.90
53264;DHT22;39153;52.680;6.172;2023-02-28T09:03:18;3.90;99.90
53264;DHT22;39153;52.680;6.172;2023-02-28T09:05:57;4.00;99.90
53264;DHT22;39153;52.680;6.172;2023-02-28T09:08:25;3.90;99.90
53264;DHT22;39153;52.680;6.172;2023-02-28T09:10:51;3.80;99.90
53264;DHT22;39153;52.680;6.172;2023-02-28T09:13:18;3.70;99.90
53264;DHT22;39153;52.680;6.172;2023-02-28T09:15:44;3.70;99.90
53264;DHT22;39153;52.680;6.172;2023-02-28T09:18:10;3.70;99.90
53264;DHT22;39153;52.680;6.172;2023-02-28T09:20:43;3.60;99.90
53264;DHT22;39153;52.680;6.172;2023-02-28T09:23:11;3.70;99.90
53264;DHT22;39153;52.680;6.172;2023-02-28T09:25:37;3.70;99.90
53264;DHT22;39153;52.680;6.172;2023-02-28T09:28:03;3.80;99.90
53264;DHT22;39153;52.680;6.172;2023-02-28T09:30:30;4.20;99.90
53264;DHT22;39153;52.680;6.172;2023-02-28T09:32:56;4.00;99.90
53264;DHT22;39153;52.680;6.172;2023-02-28T09:35:23;4.10;99.90
53264;DHT22;39153;52.680;6.172;2023-02-28T09:37:50;4.10;99.90
53264;DHT22;39153;52.680;6.172;2023-02-28T09:40:22;4.10;99.90
53264;DHT22;39153;52.680;6.172;2023-02-28T09:42:49;4.20;99.90
53264;DHT22;39153;52.680;6.172;2023-02-28T09:45:26;4.20;99.90
53264;DHT22;39153;52.680;6.172;2023-02-28T09:47:57;4.30;99.90
53264;DHT22;39153;52.680;6.172;2023-02-28T09:50:29;4.70;99.90
53264;DHT22;39153;52.680;6.172;2023-02-28T09:52:56;4.40;99.90
53264;DHT22;39153;52.680;6.172;2023-02-28T09:55:28;4.40;99.90
53264;DHT22;39153;52.680;6.172;2023-02-28T09:57:56;4.50;99.90
53264;DHT22;39153;52.680;6.172;2023-02-28T10:00:32;4.70;99.90
53264;DHT22;39153;52.680;6.172;2023-02-28T10:03:36;4.80;99.90
53264;DHT22;39153;52.680;6.172;2023-02-28T10:06:20;5.00;99.90
53264;DHT22;39153;52.680;6.172;2023-02-28T10:09:11;5.10;99.90
53264;DHT22;39153;52.680;6.172;2023-02-28T10:11:40;5.30;99.90
53264;DHT22;39153;52.680;6.172;2023-02-28T10:14:14;5.70;99.90
53264;DHT22;39153;52.680;6.172;2023-02-28T10:16:43;5.50;99.90
53264;DHT22;39153;52.680;6.172;2023-02-28T10:19:20;5.50;99.90
53264;DHT22;39153;52.680;6.172;2023-02-28T10:21:48;5.50;99.90
53264;DHT22;39153;52.680;6.172;2023-02-28T10:24:32;5.40;99.90
53264;DHT22;39153;52.680;6.172;2023-02-28T10:27:18;5.20;99.90
53264;DHT22;39153;52.680;6.172;2023-02-28T10:29:46;5.20;99.90
53264;DHT22;39153;52.680;6.172;2023-02-28T10:32:16;5.40;99.90
53264;DHT22;39153;52.680;6.172;2023-02-28T10:34:42;5.40;99.90
53264;DHT22;39153;52.680;6.172;2023-02-28T10:37:10;5.50;99.90
53264;DHT22;39153;52.680;6.172;2023-02-28T10:39:44;5.60;99.90
53264;DHT22;39153;52.680;6.172;2023-02-28T10:42:27;5.80;99.90
53264;DHT22;39153;52.680;6.172;2023-02-28T10:45:14;5.90;99.90
53264;DHT22;39153;52.680;6.172;2023-02-28T10:47:58;6.10;99.90
53264;DHT22;39153;52.680;6.172;2023-02-28T10:50:30;6.70;99.90
53264;DHT22;39153;52.680;6.172;2023-02-28T11:00:55;6.80;99.90
53264;DHT22;39153;52.680;6.172;2023-02-28T11:03:31;6.90;99.90
53264;DHT22;39153;52.680;6.172;2023-02-28T11:05:58;6.90;99.90
53264;DHT22;39153;52.680;6.172;2023-02-28T11:08:24;7.10;99.90
53264;DHT22;39153;52.680;6.172;2023-02-28T11:10:58;7.20;99.90
53264;DHT22;39153;52.680;6.172;2023-02-28T11:13:32;7.30;99.90
53264;DHT22;39153;52.680;6.172;2023-02-28T11:16:01;7.20;99.90
53264;DHT22;39153;52.680;6.172;2023-02-28T11:18:38;7.30;99.90
53264;DHT22;39153;52.680;6.172;2023-02-28T11:21:06;7.40;99.90
53264;DHT22;39153;52.680;6.172;2023-02-28T11:23:34;7.10;99.90
53264;DHT22;39153;52.680;6.172;2023-02-28T11:26:03;7.30;99.90
53264;DHT22;39153;52.680;6.172;2023-02-28T11:28:49;7.50;99.90
53264;DHT22;39153;52.680;6.172;2023-02-28T11:31:20;7.60;99.90
53264;DHT22;39153;52.680;6.172;2023-02-28T11:33:52;7.60;99.90
53264;DHT22;39153;52.680;6.172;2023-02-28T11:36:27;7.50;99.90
53264;DHT22;39153;52.680;6.172;2023-02-28T11:38:56;7.80;99.90
53264;DHT22;39153;52.680;6.172;2023-02-28T11:53:05;8.80;99.90
53264;DHT22;39153;52.680;6.172;2023-02-28T11:55:45;9.00;99.90
53264;DHT22;39153;52.680;6.172;2023-02-28T12:09:40;9.70;99.90
53264;DHT22;39153;52.680;6.172;2023-02-28T12:17:53;9.90;99.90
53264;DHT22;39153;52.680;6.172;2023-02-28T12:23:26;9.90;99.90
53264;DHT22;39153;52.680;6.172;2023-02-28T12:26:13;10.10;99.90
53264;DHT22;39153;52.680;6.172;2023-02-28T12:28:50;10.20;99.90
53264;DHT22;39153;52.680;6.172;2023-02-28T12:31:24;10.20;99.90
53264;DHT22;39153;52.680;6.172;2023-02-28T12:33:53;10.20;99.90
53264;DHT22;39153;52.680;6.172;2023-02-28T12:36:20;10.30;99.90
53264;DHT22;39153;52.680;6.172;2023-02-28T12:39:01;10.20;99.90
53264;DHT22;39153;52.680;6.172;2023-02-28T12:41:40;10.30;99.90
53264;DHT22;39153;52.680;6.172;2023-02-28T12:44:15;10.50;99.90
53264;DHT22;39153;52.680;6.172;2023-02-28T12:46:47;10.50;99.90
53264;DHT22;39153;52.680;6.172;2023-02-28T12:51:57;10.80;99.90
53264;DHT22;39153;52.680;6.172;2023-02-28T12:55:05;10.80;99.90
53264;DHT22;39153;52.680;6.172;2023-02-28T13:00:14;11.00;99.90
53264;DHT22;39153;52.680;6.172;2023-02-28T13:05:58;11.20;99.90
53264;DHT22;39153;52.680;6.172;2023-02-28T13:11:52;11.20;99.90
53264;DHT22;39153;52.680;6.172;2023-02-28T13:14:37;11.30;99.90
53264;DHT22;39153;52.680;6.172;2023-02-28T13:17:12;11.40;99.90
53264;DHT22;39153;52.680;6.172;2023-02-28T13:19:44;11.60;99.90
53264;DHT22;39153;52.680;6.172;2023-02-28T13:25:01;11.90;99.30
53264;DHT22;39153;52.680;6.172;2023-02-28T13:27:38;11.90;99.10
53264;DHT22;39153;52.680;6.172;2023-02-28T13:33:34;12.00;98.10
53264;DHT22;39153;52.680;6.172;2023-02-28T13:38:39;12.10;98.20
53264;DHT22;39153;52.680;6.172;2023-02-28T13:44:13;12.10;97.60
53264;DHT22;39153;52.680;6.172;2023-02-28T13:49:33;12.20;97.40
53264;DHT22;39153;52.680;6.172;2023-02-28T13:57:42;12.20;96.80
53264;DHT22;39153;52.680;6.172;2023-02-28T14:05:45;12.60;96.80
53264;DHT22;39153;52.680;6.172;2023-02-28T14:08:18;12.70;96.90
53264;DHT22;39153;52.680;6.172;2023-02-28T14:10:49;12.80;96.20
53264;DHT22;39153;52.680;6.172;2023-02-28T14:16:08;12.90;95.30
53264;DHT22;39153;52.680;6.172;2023-02-28T14:18:36;12.90;96.10
53264;DHT22;39153;52.680;6.172;2023-02-28T14:24:09;12.90;94.50
53264;DHT22;39153;52.680;6.172;2023-02-28T14:29:51;12.40;95.20
53264;DHT22;39153;52.680;6.172;2023-02-28T14:32:30;12.10;95.20
53264;DHT22;39153;52.680;6.172;2023-02-28T14:37:46;11.40;96.00
53264;DHT22;39153;52.680;6.172;2023-02-28T14:40:29;11.10;96.20
53264;DHT22;39153;52.680;6.172;2023-02-28T14:43:16;10.90;96.10
53264;DHT22;39153;52.680;6.172;2023-02-28T14:45:42;10.70;96.40
53264;DHT22;39153;52.680;6.172;2023-02-28T14:48:09;10.50;96.80
53264;DHT22;39153;52.680;6.172;2023-02-28T14:50:36;10.40;97.10
53264;DHT22;39153;52.680;6.172;2023-02-28T14:53:03;10.30;97.50
53264;DHT22;39153;52.680;6.172;2023-02-28T14:55:32;10.20;97.60
53264;DHT22;39153;52.680;6.172;2023-02-28T14:58:04;10.00;97.80
53264;DHT22;39153;52.680;6.172;2023-02-28T15:00:50;9.90;97.10
53264;DHT22;39153;52.680;6.172;2023-02-28T15:03:42;9.80;97.20
53264;DHT22;39153;52.680;6.172;2023-02-28T15:06:15;9.70;97.20
53264;DHT22;39153;52.680;6.172;2023-02-28T15:08:43;9.60;97.50
53264;DHT22;39153;52.680;6.172;2023-02-28T15:11:19;9.50;97.60
53264;DHT22;39153;52.680;6.172;2023-02-28T15:13:52;9.50;97.80
53264;DHT22;39153;52.680;6.172;2023-02-28T15:16:24;9.40;97.90
53264;DHT22;39153;52.680;6.172;2023-02-28T15:19:13;9.40;97.80
53264;DHT22;39153;52.680;6.172;2023-02-28T15:21:43;9.30;97.60
53264;DHT22;39153;52.680;6.172;2023-02-28T15:27:05;9.30;97.30
53264;DHT22;39153;52.680;6.172;2023-02-28T15:29:44;9.30;97.50
53264;DHT22;39153;52.680;6.172;2023-02-28T15:32:24;9.20;97.30
53264;DHT22;39153;52.680;6.172;2023-02-28T15:34:51;9.20;97.30
53264;DHT22;39153;52.680;6.172;2023-02-28T15:37:55;9.00;97.70
53264;DHT22;39153;52.680;6.172;2023-02-28T15:43:11;8.90;97.90
53264;DHT22;39153;52.680;6.172;2023-02-28T15:45:55;9.00;98.00
53264;DHT22;39153;52.680;6.172;2023-02-28T15:48:24;8.90;97.90
53264;DHT22;39153;52.680;6.172;2023-02-28T15:50:56;8.80;98.40
53264;DHT22;39153;52.680;6.172;2023-02-28T15:53:30;8.80;98.30
53264;DHT22;39153;52.680;6.172;2023-02-28T15:56:02;8.80;98.20
53264;DHT22;39153;52.680;6.172;2023-02-28T15:58:29;8.80;98.20
53264;DHT22;39153;52.680;6.172;2023-02-28T16:01:08;8.70;98.30
53264;DHT22;39153;52.680;6.172;2023-02-28T16:03:45;8.60;98.30
53264;DHT22;39153;52.680;6.172;2023-02-28T16:09:15;8.40;98.60
53264;DHT22;39153;52.680;6.172;2023-02-28T16:11:47;8.50;98.90
53264;DHT22;39153;52.680;6.172;2023-02-28T16:14:19;8.40;99.00
53264;DHT22;39153;52.680;6.172;2023-02-28T16:16:48;8.40;99.00
53264;DHT22;39153;52.680;6.172;2023-02-28T16:19:15;8.40;99.30
53264;DHT22;39153;52.680;6.172;2023-02-28T16:21:40;8.30;99.40
53264;DHT22;39153;52.680;6.172;2023-02-28T16:24:06;8.20;99.80
53264;DHT22;39153;52.680;6.172;2023-02-28T16:26:32;8.20;99.80
53264;DHT22;39153;52.680;6.172;2023-02-28T16:29:00;8.20;99.90
53264;DHT22;39153;52.680;6.172;2023-02-28T16:31:27;8.20;99.90
53264;DHT22;39153;52.680;6.172;2023-02-28T16:33:53;8.20;99.90
53264;DHT22;39153;52.680;6.172;2023-02-28T16:36:23;8.10;99.90
53264;DHT22;39153;52.680;6.172;2023-02-28T16:38:54;8.20;99.90
53264;DHT22;39153;52.680;6.172;2023-02-28T16:41:25;8.10;99.90
53264;DHT22;39153;52.680;6.172;2023-02-28T16:43:54;8.10;99.90
53264;DHT22;39153;52.680;6.172;2023-02-28T16:46:25;8.10;99.90
53264;DHT22;39153;52.680;6.172;2023-02-28T16:48:52;8.00;99.90
53264;DHT22;39153;52.680;6.172;2023-02-28T16:51:18;8.00;99.90
53264;DHT22;39153;52.680;6.172;2023-02-28T16:53:45;7.90;99.90
53264;DHT22;39153;52.680;6.172;2023-02-28T16:56:18;8.10;99.90
53264;DHT22;39153;52.680;6.172;2023-02-28T16:58:45;7.80;99.90
53264;DHT22;39153;52.680;6.172;2023-02-28T17:01:12;7.70;99.90
53264;DHT22;39153;52.680;6.172;2023-02-28T17:03:38;7.60;99.90
53264;DHT22;39153;52.680;6.172;2023-02-28T17:06:08;7.60;99.90
53264;DHT22;39153;52.680;6.172;2023-02-28T17:08:43;7.50;99.90
53264;DHT22;39153;52.680;6.172;2023-02-28T17:11:09;7.40;99.90
53264;DHT22;39153;52.680;6.172;2023-02-28T17:13:35;7.40;99.90
53264;DHT22;39153;52.680;6.172;2023-02-28T17:16:01;7.30;99.90
53264;DHT22;39153;52.680;6.172;2023-02-28T17:18:27;7.20;99.90
53264;DHT22;39153;52.680;6.172;2023-02-28T17:20:59;7.20;99.90
53264;DHT22;39153;52.680;6.172;2023-02-28T17:23:25;7.10;99.90
53264;DHT22;39153;52.680;6.172;2023-02-28T17:25:51;7.00;99.90
53264;DHT22;39153;52.680;6.172;2023-02-28T17:28:20;7.00;99.90
53264;DHT22;39153;52.680;6.172;2023-02-28T17:30:46;6.90;99.90
53264;DHT22;39153;52.680;6.172;2023-02-28T17:33:14;6.80;99.90
53264;DHT22;39153;52.680;6.172;2023-02-28T17:35:40;6.80;99.90
53264;DHT22;39153;52.680;6.172;2023-02-28T17:38:16;6.70;99.90
53264;DHT22;39153;52.680;6.172;2023-02-28T17:40:42;6.70;99.90
53264;DHT22;39153;52.680;6.172;2023-02-28T17:43:07;6.60;99.90
53264;DHT22;39153;52.680;6.172;2023-02-28T17:45:33;6.70;99.90
53264;DHT22;39153;52.680;6.172;2023-02-28T17:48:01;6.50;99.90
53264;DHT22;39153;52.680;6.172;2023-02-28T17:50:27;6.50;99.90
53264;DHT22;39153;52.680;6.172;2023-02-28T17:52:52;6.50;99.90
53264;DHT22;39153;52.680;6.172;2023-02-28T17:55:18;6.40;99.90
53264;DHT22;39153;52.680;6.172;2023-02-28T17:57:47;6.50;99.90
53264;DHT22;39153;52.680;6.172;2023-02-28T18:00:14;6.30;99.90
53264;DHT22;39153;52.680;6.172;2023-02-28T18:02:41;6.20;99.90
53264;DHT22;39153;52.680;6.172;2023-02-28T18:05:07;6.30;99.90
53264;DHT22;39153;52.680;6.172;2023-02-28T18:07:34;6.10;99.90
53264;DHT22;39153;52.680;6.172;2023-02-28T18:10:00;5.90;99.90
53264;DHT22;39153;52.680;6.172;2023-02-28T18:12:25;5.90;99.90
53264;DHT22;39153;52.680;6.172;2023-02-28T18:14:51;5.80;99.90